sensor_id;sensor_type;location;lat;lon;timestamp;pressure;altitude;pressure_sealevel;temperature;humidity
69766;BME280;57039;48.014;21.384;2023-02-10T00:00:50;102879.38;;;-5.91;100.00
69766;BME280;57039;48.014;21.384;2023-02-10T00:01:53;102874.59;;;-5.85;100.00
69766;BME280;57039;48.014;21.384;2023-02-10T00:02:56;102878.31;;;-5.78;100.00
69766;BME280;57039;48.014;21.384;2023-02-10T00:03:59;102870.91;;;-5.74;100.00
69766;BME280;57039;48.014;21.384;2023-02-10T00:05:01;102872.72;;;-5.71;100.00
69766;BME280;57039;48.014;21.384;2023-02-10T00:06:05;102866.72;;;-5.71;100.00
69766;BME280;57039;48.014;21.384;2023-02-10T00:07:09;102870.97;;;-5.72;100.00
69766;BME280;57039;48.014;21.384;2023-02-10T00:08:12;102871.06;;;-5.70;100.00
69766;BME280;57039;48.014;21.384;2023-02-10T00:09:14;102878.56;;;-5.74;100.00
69766;BME280;57039;48.014;21.384;2023-02-10T00:10:17;102881.75;;;-5.78;100.00
69766;BME280;57039;48.014;21.384;2023-02-10T00:11:20;102876.63;;;-5.78;100.00
69766;BME280;57039;48.014;21.384;2023-02-10T00:12:44;102877.28;;;-5.82;100.00
69766;BME280;57039;48.014;21.384;2023-02-10T00:13:46;102876.34;;;-5.84;100.00
69766;BME280;57039;48.014;21.384;2023-02-10T00:14:49;102879.53;;;-5.88;100.00
69766;BME280;57039;48.014;21.384;2023-02-10T00:15:52;102875.16;;;-5.90;100.00
69766;BME280;57039;48.014;21.384;2023-02-10T00:16:56;102875.09;;;-5.92;100.00
69766;BME280;57039;48.014;21.384;2023-02-10T00:17:59;102868.91;;;-5.97;100.00
69766;BME280;57039;48.014;21.384;2023-02-10T00:19:02;102870.78;;;-5.93;100.00
69766;BME280;57039;48.014;21.384;2023-02-10T00:20:06;102871.72;;;-5.91;100.00
69766;BME280;57039;48.014;21.384;2023-02-10T00:21:14;102871.06;;;-5.87;100.00
69766;BME280;57039;48.014;21.384;2023-02-10T00:22:17;102867.16;;;-5.80;100.00
69766;BME280;57039;48.014;21.384;2023-02-10T00:23:20;102866.25;;;-5.81;100.00
69766;BME280;57039;48.014;21.384;2023-02-10T00:24:23;102861.31;;;-5.78;100.00
69766;BME280;57039;48.014;21.384;2023-02-10T00:25:26;102860.72;;;-5.72;100.00
69766;BME280;57039;48.014;21.384;2023-02-10T00:26:29;102865.69;;;-5.75;100.00
69766;BME280;57039;48.014;21.384;2023-02-10T00:27:32;102861.31;;;-5.78;100.00
69766;BME280;57039;48.014;21.384;2023-02-10T00:28:35;102861.31;;;-5.78;100.00
69766;BME280;57039;48.014;21.384;2023-02-10T00:29:39;102866.50;;;-5.76;100.00
69766;BME280;57039;48.014;21.384;2023-02-10T00:30:41;102872.34;;;-5.79;100.00
69766;BME280;57039;48.014;21.384;2023-02-10T00:31:44;102873.72;;;-5.85;100.00
69766;BME280;57039;48.014;21.384;2023-02-10T00:32:47;102868.66;;;-5.84;100.00
69766;BME280;57039;48.014;21.384;2023-02-10T00:33:50;102867.94;;;-5.81;100.00
69766;BME280;57039;48.014;21.384;2023-02-10T00:34:53;102871.88;;;-5.88;100.00
69766;BME280;57039;48.014;21.384;2023-02-10T00:35:56;102875.31;;;-5.87;100.00
69766;BME280;57039;48.014;21.384;2023-02-10T00:36:59;102870.03;;;-5.90;100.00
69766;BME280;57039;48.014;21.384;2023-02-10T00:38:01;102878.53;;;-5.91;100.00
69766;BME280;57039;48.014;21.384;2023-02-10T00:39:04;102882.62;;;-5.95;100.00
69766;BME280;57039;48.014;21.384;2023-02-10T00:40:09;102874.88;;;-5.97;100.00
69766;BME280;57039;48.014;21.384;2023-02-10T00:41:14;102875.59;;;-5.99;100.00
69766;BME280;57039;48.014;21.384;2023-02-10T00:42:17;102879.28;;;-5.94;100.00
69766;BME280;57039;48.014;21.384;2023-02-10T00:43:20;102880.19;;;-5.92;100.00
69766;BME280;57039;48.014;21.384;2023-02-10T00:44:23;102883.63;;;-5.91;100.00
69766;BME280;57039;48.014;21.384;2023-02-10T00:45:26;102880.84;;;-5.96;100.00
69766;BME280;57039;48.014;21.384;2023-02-10T00:46:29;102877.66;;;-5.92;100.00
69766;BME280;57039;48.014;21.384;2023-02-10T00:47:32;102880.84;;;-5.96;100.00
69766;BME280;57039;48.014;21.384;2023-02-10T00:48:35;102876.41;;;-6.00;100.00
69766;BME280;57039;48.014;21.384;2023-02-10T00:49:38;102879.81;;;-6.00;100.00
69766;BME280;57039;48.014;21.384;2023-02-10T00:50:41;102887.34;;;-6.03;100.00
69766;BME280;57039;48.014;21.384;2023-02-10T00:51:44;102889.09;;;-6.02;100.00
69766;BME280;57039;48.014;21.384;2023-02-10T00:52:46;102882.88;;;-6.07;100.00
69766;BME280;57039;48.014;21.384;2023-02-10T00:53:49;102879.38;;;-6.09;100.00
69766;BME280;57039;48.014;21.384;2023-02-10T00:54:53;102882.78;;;-6.08;100.00
69766;BME280;57039;48.014;21.384;2023-02-10T00:55:56;102884.63;;;-6.06;100.00
69766;BME280;57039;48.014;21.384;2023-02-10T00:56:59;102883.03;;;-6.04;100.00
69766;BME280;57039;48.014;21.384;2023-02-10T00:58:02;102874.56;;;-6.03;100.00
69766;BME280;57039;48.014;21.384;2023-02-10T00:59:05;102876.25;;;-6.03;100.00
69766;BME280;57039;48.014;21.384;2023-02-10T01:00:10;102881.50;;;-6.00;100.00
69766;BME280;57039;48.014;21.384;2023-02-10T01:01:13;102877.66;;;-5.92;100.00
69766;BME280;57039;48.014;21.384;2023-02-10T01:02:16;102871.88;;;-5.88;100.00
69766;BME280;57039;48.014;21.384;2023-02-10T01:03:19;102872.47;;;-5.93;100.00
69766;BME280;57039;48.014;21.384;2023-02-10T01:04:22;102870.41;;;-6.01;100.00
69766;BME280;57039;48.014;21.384;2023-02-10T01:05:25;102867.88;;;-6.01;100.00
69766;BME280;57039;48.014;21.384;2023-02-10T01:06:28;102877.22;;;-6.01;100.00
69766;BME280;57039;48.014;21.384;2023-02-10T01:07:32;102869.47;;;-6.03;100.00
69766;BME280;57039;48.014;21.384;2023-02-10T01:08:35;102874.56;;;-6.03;100.00
69766;BME280;57039;48.014;21.384;2023-02-10T01:09:38;102871.03;;;-6.05;100.00
69766;BME280;57039;48.014;21.384;2023-02-10T01:10:42;102871.75;;;-6.07;100.00
69766;BME280;57039;48.014;21.384;2023-02-10T01:11:44;102871.91;;;-6.04;100.00
69766;BME280;57039;48.014;21.384;2023-02-10T01:12:47;102878.81;;;-6.03;100.00
69766;BME280;57039;48.014;21.384;2023-02-10T01:13:50;102867.06;;;-6.00;100.00
69766;BME280;57039;48.014;21.384;2023-02-10T01:14:55;102876.25;;;-6.03;100.00
69766;BME280;57039;48.014;21.384;2023-02-10T01:15:58;102874.25;;;-6.09;100.00
69766;BME280;57039;48.014;21.384;2023-02-10T01:17:01;102872.97;;;-6.17;100.00
69766;BME280;57039;48.014;21.384;2023-02-10T01:18:03;102875.00;;;-6.28;100.00
69766;BME280;57039;48.014;21.384;2023-02-10T01:19:06;102875.44;;;-6.35;100.00
69766;BME280;57039;48.014;21.384;2023-02-10T01:20:09;102869.47;;;-6.35;100.00
69766;BME280;57039;48.014;21.384;2023-02-10T01:21:16;102873.75;;;-6.34;100.00
69766;BME280;57039;48.014;21.384;2023-02-10T01:22:19;102857.66;;;-6.33;100.00
69766;BME280;57039;48.014;21.384;2023-02-10T01:23:22;102877.53;;;-6.28;100.00
69766;BME280;57039;48.014;21.384;2023-02-10T01:24:24;102873.31;;;-6.27;100.00
69766;BME280;57039;48.014;21.384;2023-02-10T01:25:27;102874.03;;;-6.30;100.00
69766;BME280;57039;48.014;21.384;2023-02-10T01:26:31;102866.53;;;-6.27;100.00
69766;BME280;57039;48.014;21.384;2023-02-10T01:27:34;102866.03;;;-6.20;100.00
69766;BME280;57039;48.014;21.384;2023-02-10T01:28:37;102869.53;;;-6.17;100.00
69766;BME280;57039;48.014;21.384;2023-02-10T01:29:41;102872.97;;;-6.17;100.00
69766;BME280;57039;48.014;21.384;2023-02-10T01:30:43;102868.72;;;-6.16;100.00
69766;BME280;57039;48.014;21.384;2023-02-10T01:31:47;102862.69;;;-6.18;100.00
69766;BME280;57039;48.014;21.384;2023-02-10T01:32:52;102864.44;;;-6.17;100.00
69766;BME280;57039;48.014;21.384;2023-02-10T01:33:56;102860.91;;;-6.20;100.00
69766;BME280;57039;48.014;21.384;2023-02-10T01:34:58;102856.13;;;-6.13;100.00
69766;BME280;57039;48.014;21.384;2023-02-10T01:36:10;102859.09;;;-6.06;100.00
69766;BME280;57039;48.014;21.384;2023-02-10T01:37:14;102854.03;;;-6.04;100.00
69766;BME280;57039;48.014;21.384;2023-02-10T01:38:17;102858.38;;;-6.03;100.00
69766;BME280;57039;48.014;21.384;2023-02-10T01:39:19;102852.44;;;-6.02;100.00
69766;BME280;57039;48.014;21.384;2023-02-10T01:40:25;102846.47;;;-6.03;100.00
69766;BME280;57039;48.014;21.384;2023-02-10T01:41:28;102845.66;;;-6.02;100.00
69766;BME280;57039;48.014;21.384;2023-02-10T01:42:31;102847.28;;;-6.04;100.00
69766;BME280;57039;48.014;21.384;2023-02-10T01:43:54;102852.53;;;-6.01;100.00
69766;BME280;57039;48.014;21.384;2023-02-10T01:45:26;102858.84;;;-6.10;100.00
69766;BME280;57039;48.014;21.384;2023-02-10T01:46:33;102846.56;;;-6.17;100.00
69766;BME280;57039;48.014;21.384;2023-02-10T01:47:37;102850.78;;;-6.18;100.00
69766;BME280;57039;48.014;21.384;2023-02-10T01:48:39;102845.84;;;-6.15;100.00
69766;BME280;57039;48.014;21.384;2023-02-10T01:49:46;102846.41;;;-6.21;100.00
69766;BME280;57039;48.014;21.384;2023-02-10T01:51:04;102851.44;;;-6.22;100.00
69766;BME280;57039;48.014;21.384;2023-02-10T01:52:18;102846.97;;;-6.26;100.00
69766;BME280;57039;48.014;21.384;2023-02-10T01:53:24;102837.84;;;-6.37;100.00
69766;BME280;57039;48.014;21.384;2023-02-10T01:54:32;102852.94;;;-6.26;100.00
69766;BME280;57039;48.014;21.384;2023-02-10T01:55:36;102852.72;;;-6.30;100.00
69766;BME280;57039;48.014;21.384;2023-02-10T01:56:42;102844.97;;;-6.32;100.00
69766;BME280;57039;48.014;21.384;2023-02-10T01:57:48;102844.19;;;-6.31;100.00
69766;BME280;57039;48.014;21.384;2023-02-10T01:58:57;102842.19;;;-6.36;100.00
69766;BME280;57039;48.014;21.384;2023-02-10T02:00:00;102842.19;;;-6.36;100.00
69766;BME280;57039;48.014;21.384;2023-02-10T02:01:12;102843.53;;;-6.27;100.00
69766;BME280;57039;48.014;21.384;2023-02-10T02:02:17;102846.25;;;-6.24;100.00
69766;BME280;57039;48.014;21.384;2023-02-10T02:03:21;102840.31;;;-6.23;100.00
69766;BME280;57039;48.014;21.384;2023-02-10T02:04:23;102844.72;;;-6.20;100.00
69766;BME280;57039;48.014;21.384;2023-02-10T02:05:39;102840.56;;;-6.18;100.00
69766;BME280;57039;48.014;21.384;2023-02-10T02:06:42;102845.91;;;-6.13;100.00
69766;BME280;57039;48.014;21.384;2023-02-10T02:07:46;102841.69;;;-6.13;100.00
69766;BME280;57039;48.014;21.384;2023-02-10T02:08:50;102824.13;;;-6.23;100.00
69766;BME280;57039;48.014;21.384;2023-02-10T02:09:58;102845.84;;;-6.15;100.00
69766;BME280;57039;48.014;21.384;2023-02-10T02:11:42;102844.81;;;-6.18;100.00
69766;BME280;57039;48.014;21.384;2023-02-10T02:13:03;102838.44;;;-6.27;100.00
69766;BME280;57039;48.014;21.384;2023-02-10T02:15:42;102843.44;;;-6.28;100.00
69766;BME280;57039;48.014;21.384;2023-02-10T02:17:03;102844.66;;;-6.22;100.00
69766;BME280;57039;48.014;21.384;2023-02-10T02:20:20;102840.47;;;-6.20;100.00
69766;BME280;57039;48.014;21.384;2023-02-10T02:22:10;102837.16;;;-6.18;100.00
69766;BME280;57039;48.014;21.384;2023-02-10T02:27:36;102837.16;;;-6.18;100.00
69766;BME280;57039;48.014;21.384;2023-02-10T02:30:26;102830.50;;;-6.15;100.00
69766;BME280;57039;48.014;21.384;2023-02-10T02:32:43;102831.06;;;-6.21;100.00
69766;BME280;57039;48.014;21.384;2023-02-10T02:33:50;102829.81;;;-6.29;100.00
69766;BME280;57039;48.014;21.384;2023-02-10T02:35:07;102826.31;;;-6.31;100.00
69766;BME280;57039;48.014;21.384;2023-02-10T02:36:41;102835.16;;;-6.24;100.00
69766;BME280;57039;48.014;21.384;2023-02-10T02:37:47;102834.84;;;-6.30;100.00
69766;BME280;57039;48.014;21.384;2023-02-10T02:38:58;102828.88;;;-6.31;100.00
69766;BME280;57039;48.014;21.384;2023-02-10T02:40:03;102836.59;;;-6.29;100.00
69766;BME280;57039;48.014;21.384;2023-02-10T02:41:08;102825.25;;;-6.34;100.00
69766;BME280;57039;48.014;21.384;2023-02-10T02:42:30;102831.97;;;-6.36;100.00
69766;BME280;57039;48.014;21.384;2023-02-10T02:43:33;102832.59;;;-6.40;100.00
69766;BME280;57039;48.014;21.384;2023-02-10T02:44:37;102830.78;;;-6.43;100.00
69766;BME280;57039;48.014;21.384;2023-02-10T02:49:26;102830.06;;;-6.57;100.00
69766;BME280;57039;48.014;21.384;2023-02-10T02:52:05;102825.75;;;-6.58;100.00
69766;BME280;57039;48.014;21.384;2023-02-10T02:54:54;102820.63;;;-6.41;100.00
69766;BME280;57039;48.014;21.384;2023-02-10T02:57:56;102813.13;;;-6.38;100.00
69766;BME280;57039;48.014;21.384;2023-02-10T03:00:35;102816.03;;;-6.49;100.00
69766;BME280;57039;48.014;21.384;2023-02-10T03:01:51;102820.22;;;-6.49;100.00
69766;BME280;57039;48.014;21.384;2023-02-10T03:02:58;102824.56;;;-6.48;100.00
69766;BME280;57039;48.014;21.384;2023-02-10T03:04:02;102819.59;;;-6.45;100.00
69766;BME280;57039;48.014;21.384;2023-02-10T03:05:08;102815.63;;;-6.40;100.00
69766;BME280;57039;48.014;21.384;2023-02-10T03:06:12;102813.28;;;-6.35;100.00
69766;BME280;57039;48.014;21.384;2023-02-10T03:07:15;102813.13;;;-6.38;100.00
69766;BME280;57039;48.014;21.384;2023-02-10T03:08:19;102815.78;;;-6.37;100.00
69766;BME280;57039;48.014;21.384;2023-02-10T03:09:22;102815.78;;;-6.37;100.00
69766;BME280;57039;48.014;21.384;2023-02-10T03:10:25;102815.03;;;-6.34;100.00
69766;BME280;57039;48.014;21.384;2023-02-10T03:11:28;102818.19;;;-6.40;100.00
69766;BME280;57039;48.014;21.384;2023-02-10T03:12:32;102823.91;;;-6.44;100.00
69766;BME280;57039;48.014;21.384;2023-02-10T03:13:35;102820.56;;;-6.43;100.00
69766;BME280;57039;48.014;21.384;2023-02-10T03:14:38;102822.87;;;-6.48;100.00
69766;BME280;57039;48.014;21.384;2023-02-10T03:15:41;102829.09;;;-6.59;100.00
69766;BME280;57039;48.014;21.384;2023-02-10T03:16:45;102829.81;;;-6.61;100.00
69766;BME280;57039;48.014;21.384;2023-02-10T03:17:48;102829.81;;;-6.61;100.00
69766;BME280;57039;48.014;21.384;2023-02-10T03:18:51;102834.03;;;-6.62;100.00
69766;BME280;57039;48.014;21.384;2023-02-10T03:19:54;102840.56;;;-6.67;100.00
69766;BME280;57039;48.014;21.384;2023-02-10T03:20:57;102842.00;;;-6.72;100.00
69766;BME280;57039;48.014;21.384;2023-02-10T03:22:00;102831.31;;;-6.81;100.00
69766;BME280;57039;48.014;21.384;2023-02-10T03:23:03;102840.06;;;-6.76;100.00
69766;BME280;57039;48.014;21.384;2023-02-10T03:24:06;102842.78;;;-6.73;100.00
69766;BME280;57039;48.014;21.384;2023-02-10T03:25:11;102848.78;;;-6.73;100.00
69766;BME280;57039;48.014;21.384;2023-02-10T03:26:14;102854.59;;;-6.75;100.00
69766;BME280;57039;48.014;21.384;2023-02-10T03:27:17;102856.28;;;-6.76;100.00
69766;BME280;57039;48.014;21.384;2023-02-10T03:28:19;102847.81;;;-6.75;100.00
69766;BME280;57039;48.014;21.384;2023-02-10T03:29:22;102853.97;;;-6.71;100.00
69766;BME280;57039;48.014;21.384;2023-02-10T03:30:26;102856.03;;;-6.80;100.00
69766;BME280;57039;48.014;21.384;2023-02-10T03:31:29;102854.34;;;-6.80;100.00
69766;BME280;57039;48.014;21.384;2023-02-10T03:32:32;102846.63;;;-6.81;100.00
69766;BME280;57039;48.014;21.384;2023-02-10T03:33:35;102850.66;;;-6.85;100.00
69766;BME280;57039;48.014;21.384;2023-02-10T03:34:37;102849.06;;;-6.83;100.00
69766;BME280;57039;48.014;21.384;2023-02-10T03:35:42;102852.28;;;-6.87;100.00
69766;BME280;57039;48.014;21.384;2023-02-10T03:36:45;102849.78;;;-6.85;100.00
69766;BME280;57039;48.014;21.384;2023-02-10T03:37:48;102845.22;;;-6.91;100.00
69766;BME280;57039;48.014;21.384;2023-02-10T03:38:51;102850.31;;;-6.91;100.00
69766;BME280;57039;48.014;21.384;2023-02-10T03:39:54;102850.00;;;-6.97;100.00
69766;BME280;57039;48.014;21.384;2023-02-10T03:40:56;102851.06;;;-6.94;100.00
69766;BME280;57039;48.014;21.384;2023-02-10T03:41:59;102844.78;;;-6.84;100.00
69766;BME280;57039;48.014;21.384;2023-02-10T03:43:02;102846.53;;;-6.83;100.00
69766;BME280;57039;48.014;21.384;2023-02-10T03:44:05;102848.38;;;-6.80;100.00
69766;BME280;57039;48.014;21.384;2023-02-10T03:45:08;102847.81;;;-6.75;100.00
69766;BME280;57039;48.014;21.384;2023-02-10T03:46:11;102848.00;;;-6.72;100.00
69766;BME280;57039;48.014;21.384;2023-02-10T03:47:16;102850.53;;;-6.72;100.00
69766;BME280;57039;48.014;21.384;2023-02-10T03:48:19;102849.03;;;-6.68;100.00
69766;BME280;57039;48.014;21.384;2023-02-10T03:49:22;102846.47;;;-6.68;100.00
69766;BME280;57039;48.014;21.384;2023-02-10T03:50:25;102841.31;;;-6.70;100.00
69766;BME280;57039;48.014;21.384;2023-02-10T03:51:27;102834.41;;;-6.71;100.00
69766;BME280;57039;48.014;21.384;2023-02-10T03:52:30;102836.91;;;-6.72;100.00
69766;BME280;57039;48.014;21.384;2023-02-10T03:53:34;102831.53;;;-6.77;100.00
69766;BME280;57039;48.014;21.384;2023-02-10T03:54:37;102825.34;;;-6.82;100.00
69766;BME280;57039;48.014;21.384;2023-02-10T03:55:39;102819.34;;;-6.82;100.00
69766;BME280;57039;48.014;21.384;2023-02-10T03:56:42;102823.88;;;-6.77;100.00
69766;BME280;57039;48.014;21.384;2023-02-10T03:57:45;102821.28;;;-6.78;100.00
69766;BME280;57039;48.014;21.384;2023-02-10T03:58:49;102811.84;;;-6.96;100.00
69766;BME280;57039;48.014;21.384;2023-02-10T03:59:51;102824.81;;;-6.91;100.00
69766;BME280;57039;48.014;21.384;2023-02-10T04:00:54;102815.41;;;-7.08;100.00
69766;BME280;57039;48.014;21.384;2023-02-10T04:01:57;102814.94;;;-7.01;100.00
69766;BME280;57039;48.014;21.384;2023-02-10T04:03:00;102821.16;;;-6.96;100.00
69766;BME280;57039;48.014;21.384;2023-02-10T04:04:03;102813.63;;;-7.09;100.00
69766;BME280;57039;48.014;21.384;2023-02-10T04:05:06;102808.72;;;-7.21;100.00
69766;BME280;57039;48.014;21.384;2023-02-10T04:06:10;102798.03;;;-7.30;100.00
69766;BME280;57039;48.014;21.384;2023-02-10T04:07:13;102772.75;;;-7.42;100.00
69766;BME280;57039;48.014;21.384;2023-02-10T04:08:16;102781.88;;;-7.31;100.00
69766;BME280;57039;48.014;21.384;2023-02-10T04:09:19;102788.87;;;-7.27;100.00
69766;BME280;57039;48.014;21.384;2023-02-10T04:10:22;102786.00;;;-7.33;100.00
69766;BME280;57039;48.014;21.384;2023-02-10T04:11:25;102782.91;;;-7.27;100.00
69766;BME280;57039;48.014;21.384;2023-02-10T04:12:28;102789.06;;;-7.24;100.00
69766;BME280;57039;48.014;21.384;2023-02-10T04:13:31;102782.53;;;-7.19;100.00
69766;BME280;57039;48.014;21.384;2023-02-10T04:14:34;102795.38;;;-7.17;100.00
69766;BME280;57039;48.014;21.384;2023-02-10T04:15:36;102794.91;;;-7.10;100.00
69766;BME280;57039;48.014;21.384;2023-02-10T04:16:39;102793.22;;;-7.09;100.00
69766;BME280;57039;48.014;21.384;2023-02-10T04:17:42;102796.66;;;-7.09;100.00
69766;BME280;57039;48.014;21.384;2023-02-10T04:18:45;102793.22;;;-7.09;100.00
69766;BME280;57039;48.014;21.384;2023-02-10T04:19:48;102800.44;;;-7.02;100.00
69766;BME280;57039;48.014;21.384;2023-02-10T04:20:50;102797.88;;;-7.02;100.00
69766;BME280;57039;48.014;21.384;2023-02-10T04:21:53;102800.34;;;-7.04;100.00
69766;BME280;57039;48.014;21.384;2023-02-10T04:22:57;102805.38;;;-7.05;100.00
69766;BME280;57039;48.014;21.384;2023-02-10T04:23:59;102807.28;;;-7.01;100.00
69766;BME280;57039;48.014;21.384;2023-02-10T04:25:02;102814.62;;;-6.91;100.00
69766;BME280;57039;48.014;21.384;2023-02-10T04:26:05;102806.50;;;-6.84;100.00
69766;BME280;57039;48.014;21.384;2023-02-10T04:27:08;102809.69;;;-6.88;100.00
69766;BME280;57039;48.014;21.384;2023-02-10T04:28:11;102813.28;;;-6.84;100.00
69766;BME280;57039;48.014;21.384;2023-02-10T04:29:14;102804.72;;;-6.85;100.00
69766;BME280;57039;48.014;21.384;2023-02-10T04:30:18;102809.78;;;-6.86;100.00
69766;BME280;57039;48.014;21.384;2023-02-10T04:31:21;102807.22;;;-6.86;100.00
69766;BME280;57039;48.014;21.384;2023-02-10T04:32:24;102810.25;;;-6.94;100.00
69766;BME280;57039;48.014;21.384;2023-02-10T04:33:27;102817.47;;;-7.01;100.00
69766;BME280;57039;48.014;21.384;2023-02-10T04:34:30;102817.81;;;-6.95;100.00
69766;BME280;57039;48.014;21.384;2023-02-10T04:35:32;102820.78;;;-6.87;100.00
69766;BME280;57039;48.014;21.384;2023-02-10T04:36:35;102819.66;;;-6.76;100.00
69766;BME280;57039;48.014;21.384;2023-02-10T04:37:38;102820.72;;;-6.73;100.00
69766;BME280;57039;48.014;21.384;2023-02-10T04:38:41;102825.19;;;-6.69;100.00
69766;BME280;57039;48.014;21.384;2023-02-10T04:39:44;102829.56;;;-6.66;100.00
69766;BME280;57039;48.014;21.384;2023-02-10T04:40:47;102833.00;;;-6.66;100.00
69766;BME280;57039;48.014;21.384;2023-02-10T04:41:50;102826.94;;;-6.68;100.00
69766;BME280;57039;48.014;21.384;2023-02-10T04:42:53;102834.75;;;-6.64;100.00
69766;BME280;57039;48.014;21.384;2023-02-10T04:43:56;102834.19;;;-6.75;100.00
69766;BME280;57039;48.014;21.384;2023-02-10T04:44:59;102841.91;;;-6.74;100.00
69766;BME280;57039;48.014;21.384;2023-02-10T04:46:02;102849.50;;;-6.75;100.00
69766;BME280;57039;48.014;21.384;2023-02-10T04:47:06;102842.28;;;-6.82;100.00
69766;BME280;57039;48.014;21.384;2023-02-10T04:48:09;102855.75;;;-6.85;100.00
69766;BME280;57039;48.014;21.384;2023-02-10T04:49:12;102853.84;;;-6.89;100.00
69766;BME280;57039;48.014;21.384;2023-02-10T04:50:15;102860.37;;;-6.94;100.00
69766;BME280;57039;48.014;21.384;2023-02-10T04:51:17;102861.09;;;-6.97;100.00
69766;BME280;57039;48.014;21.384;2023-02-10T04:52:20;102863.41;;;-7.01;100.00
69766;BME280;57039;48.014;21.384;2023-02-10T04:53:23;102871.50;;;-7.08;100.00
69766;BME280;57039;48.014;21.384;2023-02-10T04:54:26;102867.81;;;-7.14;100.00
69766;BME280;57039;48.014;21.384;2023-02-10T04:55:29;102876.72;;;-7.22;100.00
69766;BME280;57039;48.014;21.384;2023-02-10T04:56:31;102867.84;;;-7.28;100.00
69766;BME280;57039;48.014;21.384;2023-02-10T04:57:34;102870.47;;;-7.27;100.00
69766;BME280;57039;48.014;21.384;2023-02-10T04:58:37;102870.72;;;-7.22;100.00
69766;BME280;57039;48.014;21.384;2023-02-10T04:59:40;102878.81;;;-7.15;100.00
69766;BME280;57039;48.014;21.384;2023-02-10T05:00:43;102877.84;;;-7.17;100.00
69766;BME280;57039;48.014;21.384;2023-02-10T05:01:46;102873.09;;;-7.10;100.00
69766;BME280;57039;48.014;21.384;2023-02-10T05:02:49;102880.09;;;-7.06;100.00
69766;BME280;57039;48.014;21.384;2023-02-10T05:03:51;102883.47;;;-7.07;100.00
69766;BME280;57039;48.014;21.384;2023-02-10T05:04:54;102884.66;;;-7.01;100.00
69766;BME280;57039;48.014;21.384;2023-02-10T05:05:57;102883.09;;;-6.99;100.00
69766;BME280;57039;48.014;21.384;2023-02-10T05:07:00;102889.41;;;-6.92;100.00
69766;BME280;57039;48.014;21.384;2023-02-10T05:08:04;102887.66;;;-6.93;100.00
69766;BME280;57039;48.014;21.384;2023-02-10T05:09:07;102890.28;;;-6.92;100.00
69766;BME280;57039;48.014;21.384;2023-02-10T05:10:10;102891.78;;;-6.95;100.00
69766;BME280;57039;48.014;21.384;2023-02-10T05:11:13;102887.66;;;-6.93;100.00
69766;BME280;57039;48.014;21.384;2023-02-10T05:12:16;102888.38;;;-6.96;100.00
69766;BME280;57039;48.014;21.384;2023-02-10T05:13:19;102884.13;;;-6.95;100.00
69766;BME280;57039;48.014;21.384;2023-02-10T05:14:22;102882.28;;;-6.98;100.00
69766;BME280;57039;48.014;21.384;2023-02-10T05:15:25;102884.06;;;-6.97;100.00
69766;BME280;57039;48.014;21.384;2023-02-10T05:16:28;102889.94;;;-6.98;100.00
69766;BME280;57039;48.014;21.384;2023-02-10T05:17:31;102890.81;;;-6.97;100.00
69766;BME280;57039;48.014;21.384;2023-02-10T05:18:34;102890.91;;;-6.96;100.00
69766;BME280;57039;48.014;21.384;2023-02-10T05:19:37;102884.13;;;-6.95;100.00
69766;BME280;57039;48.014;21.384;2023-02-10T05:20:40;102884.31;;;-6.92;100.00
69766;BME280;57039;48.014;21.384;2023-02-10T05:21:42;102888.53;;;-6.93;100.00
69766;BME280;57039;48.014;21.384;2023-02-10T05:22:45;102888.38;;;-6.96;100.00
69766;BME280;57039;48.014;21.384;2023-02-10T05:23:48;102889.16;;;-6.97;100.00
69766;BME280;57039;48.014;21.384;2023-02-10T05:24:50;102895.38;;;-6.92;100.00
69766;BME280;57039;48.014;21.384;2023-02-10T05:25:54;102893.81;;;-6.90;100.00
69766;BME280;57039;48.014;21.384;2023-02-10T05:26:58;102897.37;;;-6.86;100.00
69766;BME280;57039;48.014;21.384;2023-02-10T05:28:01;102897.37;;;-6.86;100.00
69766;BME280;57039;48.014;21.384;2023-02-10T05:29:03;102898.03;;;-6.90;100.00
69766;BME280;57039;48.014;21.384;2023-02-10T05:30:07;102896.69;;;-6.83;100.00
69766;BME280;57039;48.014;21.384;2023-02-10T05:31:12;102901.88;;;-6.82;100.00
69766;BME280;57039;48.014;21.384;2023-02-10T05:32:14;102901.63;;;-6.86;100.00
69766;BME280;57039;48.014;21.384;2023-02-10T05:33:17;102893.69;;;-6.91;100.00
69766;BME280;57039;48.014;21.384;2023-02-10T05:34:20;102891.16;;;-6.91;100.00
69766;BME280;57039;48.014;21.384;2023-02-10T05:35:22;102892.59;;;-6.96;100.00
69766;BME280;57039;48.014;21.384;2023-02-10T05:36:26;102891.94;;;-6.92;100.00
69766;BME280;57039;48.014;21.384;2023-02-10T05:37:29;102892.13;;;-6.89;100.00
69766;BME280;57039;48.014;21.384;2023-02-10T05:38:32;102873.22;;;-6.93;100.00
69766;BME280;57039;48.014;21.384;2023-02-10T05:39:35;102872.34;;;-6.93;100.00
69766;BME280;57039;48.014;21.384;2023-02-10T05:40:38;102868.03;;;-6.94;100.00
69766;BME280;57039;48.014;21.384;2023-02-10T05:41:41;102876.41;;;-6.97;100.00
69766;BME280;57039;48.014;21.384;2023-02-10T05:42:44;102882.38;;;-6.96;100.00
69766;BME280;57039;48.014;21.384;2023-02-10T05:43:47;102886.03;;;-7.22;100.00
69766;BME280;57039;48.014;21.384;2023-02-10T05:44:50;102878.19;;;-7.10;100.00
69766;BME280;57039;48.014;21.384;2023-02-10T05:45:53;102884.34;;;-7.07;100.00
69766;BME280;57039;48.014;21.384;2023-02-10T05:46:56;102894.63;;;-7.05;100.00
69766;BME280;57039;48.014;21.384;2023-02-10T05:47:59;102891.28;;;-7.04;100.00
69766;BME280;57039;48.014;21.384;2023-02-10T05:49:02;102887.84;;;-7.05;100.00
69766;BME280;57039;48.014;21.384;2023-02-10T05:50:05;102892.25;;;-7.02;100.00